createdAt,value
2022-11-16T00:01:49.898Z,95035.47
2022-11-16T00:03:48.446Z,95037.22
2022-11-16T00:05:46.775Z,95036.28
2022-11-16T00:07:47.873Z,95036.13
2022-11-16T00:09:45.897Z,95036.00
2022-11-16T00:11:45.677Z,95022.47
2022-11-16T00:13:45.045Z,95022.72
2022-11-16T00:15:43.115Z,95027.66
2022-11-16T00:17:43.473Z,95029.78
2022-11-16T00:19:41.719Z,95029.22
2022-11-16T00:21:40.188Z,95022.13
2022-11-16T00:23:39.554Z,95018.81
2022-11-16T00:25:37.905Z,95022.31
2022-11-16T00:27:37.374Z,95014.13
2022-11-16T00:29:35.542Z,95013.00
2022-11-16T00:31:34.068Z,95027.53
2022-11-16T00:33:32.506Z,95015.91
2022-11-16T00:35:30.763Z,95022.38
2022-11-16T00:37:28.962Z,95026.13
2022-11-16T00:39:27.177Z,95026.75
2022-11-16T00:41:25.653Z,95018.19
2022-11-16T00:43:25.682Z,95012.28
2022-11-16T00:45:23.880Z,95015.88
2022-11-16T00:47:22.668Z,95017.13
2022-11-16T00:49:23.226Z,95019.00
2022-11-16T00:51:21.604Z,95009.78
2022-11-16T00:53:21.644Z,95005.41
2022-11-16T00:55:20.064Z,95012.94
2022-11-16T00:57:18.406Z,95009.59
2022-11-16T00:59:18.590Z,95006.34
2022-11-16T01:01:17.121Z,95003.81
2022-11-16T01:03:15.452Z,94998.06
2022-11-16T01:05:14.219Z,94994.53
2022-11-16T01:07:12.552Z,94995.47
2022-11-16T01:09:12.198Z,94996.91
2022-11-16T01:11:29.229Z,94989.34
2022-11-16T01:13:29.958Z,94993.81
2022-11-16T01:15:30.441Z,94984.34
2022-11-16T01:17:28.558Z,94976.66
2022-11-16T01:19:26.778Z,94980.00
2022-11-16T01:21:25.882Z,94982.00
2022-11-16T01:23:24.039Z,94987.34
2022-11-16T01:25:22.933Z,94978.34
2022-11-16T01:27:21.232Z,94974.31
2022-11-16T01:29:19.705Z,94970.16
2022-11-16T01:31:26.714Z,94977.56
2022-11-16T01:33:25.901Z,94970.97
2022-11-16T01:35:24.211Z,94971.03
2022-11-16T01:37:22.344Z,94975.25
2022-11-16T01:39:21.208Z,94969.38
2022-11-16T01:41:26.556Z,94971.97
2022-11-16T01:43:28.399Z,94968.22
2022-11-16T01:45:38.824Z,94968.44
2022-11-16T01:47:40.603Z,94972.97
2022-11-16T01:49:42.126Z,94972.97
2022-11-16T01:51:46.705Z,94973.91
2022-11-16T01:53:46.453Z,94967.22
2022-11-16T01:55:47.919Z,94969.13
2022-11-16T01:58:19.414Z,94965.78
2022-11-16T02:00:21.139Z,94969.81
2022-11-16T02:02:29.430Z,94968.81
2022-11-16T02:04:29.155Z,94959.19
2022-11-16T02:06:39.173Z,94957.50
2022-11-16T02:09:11.662Z,94952.44
2022-11-16T02:11:36.630Z,94940.03
2022-11-16T02:13:44.721Z,94935.69
2022-11-16T02:15:49.039Z,94934.19
2022-11-16T02:18:14.801Z,94929.25
2022-11-16T02:20:35.999Z,94934.59
2022-11-16T02:22:48.360Z,94937.19
2022-11-16T02:24:55.043Z,94934.50
2022-11-16T02:27:17.542Z,94939.84
2022-11-16T02:29:25.792Z,94943.06
2022-11-16T02:31:28.622Z,94935.34
2022-11-16T02:33:36.530Z,94946.97
2022-11-16T02:35:41.593Z,94941.78
2022-11-16T02:37:49.783Z,94946.13
2022-11-16T02:39:53.522Z,94934.94
2022-11-16T02:41:54.914Z,94932.09
2022-11-16T02:44:01.272Z,94931.03
2022-11-16T02:46:06.491Z,94934.50
2022-11-16T02:48:09.740Z,94933.94
2022-11-16T02:50:12.156Z,94926.91
2022-11-16T02:52:13.012Z,94933.63
2022-11-16T02:54:13.130Z,94931.59
2022-11-16T02:56:15.694Z,94932.25
2022-11-16T02:58:19.109Z,94921.78
2022-11-16T03:00:21.394Z,94925.63
2022-11-16T03:02:26.939Z,94925.47
2022-11-16T03:04:30.848Z,94917.47
2022-11-16T03:06:32.612Z,94919.13
2022-11-16T03:08:33.123Z,94914.78
2022-11-16T03:10:56.099Z,94908.94
2022-11-16T03:12:54.936Z,94902.81
2022-11-16T03:14:56.581Z,94921.56
2022-11-16T03:16:58.536Z,94913.50
2022-11-16T03:19:00.786Z,94914.44
2022-11-16T03:21:08.276Z,94908.91
2022-11-16T03:23:11.391Z,94906.56
2022-11-16T03:25:15.164Z,94915.78
2022-11-16T03:27:28.152Z,94906.41
2022-11-16T03:29:32.718Z,94911.91
2022-11-16T03:31:46.355Z,94908.16
2022-11-16T03:33:51.454Z,94908.22
2022-11-16T03:35:56.644Z,94901.84
2022-11-16T03:37:59.279Z,94904.47
2022-11-16T03:40:01.172Z,94905.78
2022-11-16T03:42:05.401Z,94901.25
2022-11-16T03:44:06.011Z,94898.84
2022-11-16T03:46:04.942Z,94899.03
2022-11-16T03:48:04.292Z,94907.91
2022-11-16T03:50:02.518Z,94896.03
2022-11-16T03:52:02.432Z,94897.63
2022-11-16T03:54:01.859Z,94894.94
2022-11-16T03:56:00.048Z,94888.09
2022-11-16T03:57:59.420Z,94897.63
2022-11-16T03:59:57.712Z,94894.28
2022-11-16T04:01:56.143Z,94905.50
2022-11-16T04:03:54.357Z,94894.09
2022-11-16T04:06:10.108Z,94881.31
2022-11-16T04:08:33.033Z,94886.06
2022-11-16T04:10:49.211Z,94885.03
2022-11-16T04:13:04.830Z,94875.03
2022-11-16T04:15:22.073Z,94863.91
2022-11-16T04:17:41.880Z,94868.81
2022-11-16T04:19:59.398Z,94864.66
2022-11-16T04:22:20.974Z,94869.84
2022-11-16T04:24:23.844Z,94856.94
2022-11-16T04:26:43.005Z,94864.69
2022-11-16T04:28:41.347Z,94862.50
2022-11-16T04:30:53.891Z,94855.91
2022-11-16T04:33:09.888Z,94854.97
2022-11-16T04:35:27.007Z,94853.59
2022-11-16T04:37:42.723Z,94853.03
2022-11-16T04:39:42.867Z,94852.59
2022-11-16T04:41:58.652Z,94850.25
2022-11-16T04:43:59.972Z,94858.84
2022-11-16T04:46:16.253Z,94858.13
2022-11-16T04:48:16.140Z,94864.81
2022-11-16T04:50:14.529Z,94856.09
2022-11-16T04:52:13.661Z,94861.28
2022-11-16T04:54:12.839Z,94862.09
2022-11-16T04:56:16.413Z,94850.72
2022-11-16T04:58:14.912Z,94854.13
2022-11-16T05:00:15.341Z,94853.13
2022-11-16T05:02:15.198Z,94855.38
2022-11-16T05:04:19.077Z,94857.38
2022-11-16T05:06:17.317Z,94851.19
2022-11-16T05:08:15.990Z,94852.81
2022-11-16T05:10:16.575Z,94846.59
2022-11-16T05:12:19.185Z,94843.09
2022-11-16T05:14:19.365Z,94835.94
2022-11-16T05:16:17.740Z,94832.88
2022-11-16T05:18:15.959Z,94843.66
2022-11-16T05:20:32.051Z,94841.97
2022-11-16T05:22:35.311Z,94847.94
2022-11-16T05:24:36.190Z,94840.88
2022-11-16T05:26:35.972Z,94845.16
2022-11-16T05:28:35.756Z,94842.38
2022-11-16T05:30:34.365Z,94848.03
2022-11-16T05:32:34.614Z,94843.84
2022-11-16T05:34:32.964Z,94844.22
2022-11-16T05:36:31.541Z,94848.94
2022-11-16T05:38:29.976Z,94833.81
2022-11-16T05:40:32.957Z,94838.00
2022-11-16T05:42:32.300Z,94830.19
2022-11-16T05:44:32.164Z,94844.97
2022-11-16T05:46:30.453Z,94836.88
2022-11-16T05:48:31.181Z,94845.44
2022-11-16T05:50:29.730Z,94835.06
2022-11-16T05:52:37.179Z,94839.25
2022-11-16T05:54:39.236Z,94843.19
2022-11-16T05:56:37.756Z,94845.22
2022-11-16T05:58:36.553Z,94842.41
2022-11-16T06:00:36.515Z,94848.81
2022-11-16T06:02:35.095Z,94842.19
2022-11-16T06:04:34.641Z,94844.19
2022-11-16T06:06:33.140Z,94840.75
2022-11-16T06:08:32.557Z,94853.03
2022-11-16T06:10:34.268Z,94842.28
2022-11-16T06:12:32.493Z,94846.44
2022-11-16T06:14:30.773Z,94847.13
2022-11-16T06:16:31.284Z,94849.31
2022-11-16T06:18:30.213Z,94848.22
2022-11-16T06:20:29.208Z,94852.28
2022-11-16T06:22:27.872Z,94843.34
2022-11-16T06:24:26.052Z,94841.59
2022-11-16T06:26:24.446Z,94840.63
2022-11-16T06:28:22.975Z,94844.81
2022-11-16T06:30:21.568Z,94846.78
2022-11-16T06:32:21.065Z,94841.75
2022-11-16T06:34:19.508Z,94840.69
2022-11-16T06:36:18.005Z,94843.22
2022-11-16T06:38:18.724Z,94843.41
2022-11-16T06:40:19.000Z,94851.72
2022-11-16T06:42:17.289Z,94846.97
2022-11-16T06:44:15.517Z,94849.19
2022-11-16T06:46:24.707Z,94847.22
2022-11-16T06:48:25.584Z,94848.69
2022-11-16T06:50:23.788Z,94840.19
2022-11-16T06:52:22.143Z,94837.50
2022-11-16T06:54:21.537Z,94841.25
2022-11-16T06:56:21.285Z,94830.44
2022-11-16T06:58:29.713Z,94832.66
2022-11-16T07:00:28.685Z,94839.81
2022-11-16T07:02:27.868Z,94835.88
2022-11-16T07:04:27.485Z,94837.56
2022-11-16T07:06:29.324Z,94831.50
2022-11-16T07:08:29.424Z,94836.59
2022-11-16T07:10:27.810Z,94833.03
2022-11-16T07:12:26.814Z,94837.09
2022-11-16T07:14:27.481Z,94832.31
2022-11-16T07:16:25.920Z,94839.00
2022-11-16T07:18:28.712Z,94827.53
2022-11-16T07:20:28.624Z,94833.28
2022-11-16T07:22:27.210Z,94833.91
2022-11-16T07:24:25.555Z,94830.88
2022-11-16T07:26:24.110Z,94829.00
2022-11-16T07:28:29.263Z,94828.78
2022-11-16T07:30:28.060Z,94835.84
2022-11-16T07:33:19.442Z,94830.72
2022-11-16T07:36:18.121Z,94812.38
2022-11-16T07:38:18.371Z,94827.28
2022-11-16T07:40:17.801Z,94820.75
2022-11-16T07:42:42.189Z,94819.16
2022-11-16T07:46:21.343Z,94825.88
2022-11-16T07:48:17.525Z,94824.56
2022-11-16T07:50:38.764Z,94824.00
2022-11-16T07:53:28.495Z,94819.53
2022-11-16T07:55:32.127Z,94816.69
2022-11-16T07:57:32.317Z,94809.00
2022-11-16T08:00:21.696Z,94822.81
2022-11-16T08:02:53.113Z,94808.66
2022-11-16T08:05:34.600Z,94807.22
2022-11-16T08:08:04.448Z,94806.44
2022-11-16T08:10:12.823Z,94810.00
2022-11-16T08:12:19.314Z,94798.97
2022-11-16T08:15:02.642Z,94798.16
2022-11-16T08:17:50.783Z,94796.88
2022-11-16T08:20:26.735Z,94790.00
2022-11-16T08:22:29.207Z,94786.00
2022-11-16T08:25:13.728Z,94776.91
2022-11-16T08:28:07.603Z,94778.03
2022-11-16T08:30:10.294Z,94777.22
2022-11-16T08:32:10.994Z,94780.66
2022-11-16T08:34:51.745Z,94778.75
2022-11-16T08:40:51.728Z,94776.34
2022-11-16T08:43:40.824Z,94769.59
2022-11-16T08:46:46.640Z,94770.13
2022-11-16T08:49:13.263Z,94774.97
2022-11-16T08:51:52.197Z,94769.94
2022-11-16T08:54:26.720Z,94772.50
2022-11-16T08:56:30.299Z,94767.38
2022-11-16T08:58:43.494Z,94771.81
2022-11-16T09:01:00.502Z,94774.22
2022-11-16T09:04:04.611Z,94768.16
2022-11-16T09:12:29.365Z,94744.13
2022-11-16T09:14:36.949Z,94746.22
2022-11-16T09:17:58.032Z,94743.44
2022-11-16T09:21:00.857Z,94732.25
2022-11-16T09:23:23.846Z,94726.81
2022-11-16T09:26:01.179Z,94723.63
2022-11-16T09:28:53.599Z,94711.19
2022-11-16T09:31:42.986Z,94706.56
2022-11-16T09:33:50.585Z,94703.53
2022-11-16T09:35:49.978Z,94690.63
2022-11-16T09:38:46.843Z,94701.78
2022-11-16T09:41:42.344Z,94687.44
2022-11-16T09:44:40.943Z,94676.38
2022-11-16T09:47:34.285Z,94675.50
2022-11-16T09:49:44.022Z,94667.25
2022-11-16T09:51:46.491Z,94665.69
2022-11-16T09:54:59.820Z,94659.00
2022-11-16T09:57:50.624Z,94648.38
2022-11-16T10:00:02.394Z,94643.53
2022-11-16T10:02:22.989Z,94641.22
2022-11-16T10:04:58.656Z,94639.59
2022-11-16T10:07:28.047Z,94632.09
2022-11-16T10:09:28.689Z,94639.78
2022-11-16T10:11:41.645Z,94631.94
2022-11-16T10:13:49.473Z,94619.03
2022-11-16T10:16:17.960Z,94624.38
2022-11-16T10:19:11.680Z,94618.38
2022-11-16T10:21:36.147Z,94612.00
2022-11-16T10:23:50.191Z,94601.34
2022-11-16T10:26:30.720Z,94596.22
2022-11-16T10:28:58.103Z,94595.28
2022-11-16T10:31:48.364Z,94596.94
2022-11-16T10:34:30.234Z,94583.38
2022-11-16T10:36:35.919Z,94580.53
2022-11-16T10:39:17.260Z,94576.00
2022-11-16T10:42:13.627Z,94569.75
2022-11-16T10:44:21.217Z,94575.66
2022-11-16T10:47:19.352Z,94572.00
2022-11-16T10:49:54.840Z,94569.72
2022-11-16T10:51:56.282Z,94570.56
2022-11-16T10:53:55.878Z,94564.38
2022-11-16T10:56:11.879Z,94566.81
2022-11-16T10:58:43.301Z,94560.84
2022-11-16T11:01:40.779Z,94559.19
2022-11-16T11:03:39.058Z,94556.41
2022-11-16T11:06:18.239Z,94554.56
2022-11-16T11:08:57.964Z,94551.97
2022-11-16T11:11:22.757Z,94552.88
2022-11-16T11:13:51.308Z,94543.47
2022-11-16T11:16:32.850Z,94535.69
2022-11-16T11:18:32.515Z,94523.09
2022-11-16T11:20:44.814Z,94520.69
2022-11-16T11:22:46.089Z,94519.41
2022-11-16T11:24:48.797Z,94514.72
2022-11-16T11:26:54.191Z,94513.00
2022-11-16T11:28:52.590Z,94503.41
2022-11-16T11:30:57.444Z,94500.06
2022-11-16T11:32:55.761Z,94506.06
2022-11-16T11:34:57.060Z,94496.75
2022-11-16T11:36:58.756Z,94495.81
2022-11-16T11:39:03.374Z,94490.28
2022-11-16T11:41:05.307Z,94488.84
2022-11-16T11:43:06.403Z,94483.28
2022-11-16T11:45:10.269Z,94479.28
2022-11-16T11:48:00.385Z,94491.78
2022-11-16T11:50:07.802Z,94484.34
2022-11-16T11:52:13.080Z,94484.34
2022-11-16T11:54:19.281Z,94469.22
2022-11-16T11:56:18.729Z,94467.31
2022-11-16T11:58:19.664Z,94460.84
2022-11-16T12:00:19.222Z,94459.88
2022-11-16T12:02:35.009Z,94456.47
2022-11-16T12:05:01.395Z,94458.84
2022-11-16T12:07:08.077Z,94462.34
2022-11-16T12:09:26.851Z,94459.81
2022-11-16T12:11:34.389Z,94451.53
2022-11-16T12:13:51.219Z,94450.53
2022-11-16T12:16:06.510Z,94447.84
2022-11-16T12:18:18.382Z,94443.34
2022-11-16T12:20:34.585Z,94441.00
2022-11-16T12:22:54.054Z,94441.84
2022-11-16T12:25:08.331Z,94437.53
2022-11-16T12:27:20.167Z,94433.41
2022-11-16T12:29:27.269Z,94434.72
2022-11-16T12:31:52.158Z,94430.81
2022-11-16T12:33:59.611Z,94426.84
2022-11-16T12:36:05.752Z,94427.09
2022-11-16T12:38:23.125Z,94425.81
2022-11-16T12:40:36.968Z,94415.34
2022-11-16T12:42:48.278Z,94415.72
2022-11-16T12:45:17.021Z,94418.84
2022-11-16T12:47:25.640Z,94418.03
2022-11-16T12:49:49.066Z,94407.66
2022-11-16T12:52:01.137Z,94406.06
2022-11-16T12:54:30.115Z,94403.78
2022-11-16T12:56:39.731Z,94398.22
2022-11-16T12:59:01.100Z,94400.19
2022-11-16T13:01:12.243Z,94402.50
2022-11-16T13:03:19.723Z,94398.31
2022-11-16T13:05:22.456Z,94388.13
2022-11-16T13:07:26.790Z,94394.72
2022-11-16T13:09:31.481Z,94390.59
2022-11-16T13:11:33.091Z,94390.59
2022-11-16T13:13:38.599Z,94384.69
2022-11-16T13:15:40.913Z,94379.44
2022-11-16T13:17:41.097Z,94379.94
2022-11-16T13:19:43.289Z,94380.25
2022-11-16T13:21:49.021Z,94372.16
2022-11-16T13:23:56.840Z,94387.44
2022-11-16T13:26:04.006Z,94366.03
2022-11-16T13:28:13.304Z,94372.03
2022-11-16T13:30:20.543Z,94367.06
2022-11-16T13:32:25.289Z,94378.75
2022-11-16T13:34:27.218Z,94372.34
2022-11-16T13:36:45.503Z,94366.63
2022-11-16T13:38:54.335Z,94368.09
2022-11-16T13:40:52.666Z,94375.03
2022-11-16T13:43:06.820Z,94380.13
2022-11-16T13:45:10.033Z,94377.19
2022-11-16T13:47:22.075Z,94372.91
2022-11-16T13:49:23.936Z,94378.69
2022-11-16T13:51:24.837Z,94375.38
2022-11-16T13:54:25.056Z,94376.50
2022-11-16T13:55:57.450Z,94379.00
2022-11-16T13:57:57.970Z,94374.16
2022-11-16T14:00:11.529Z,94383.59
2022-11-16T14:02:31.603Z,94390.47
2022-11-16T14:04:57.869Z,94370.84
2022-11-16T14:07:01.029Z,94361.53
2022-11-16T14:09:00.565Z,94364.63
2022-11-16T14:11:02.888Z,94361.34
2022-11-16T14:13:01.570Z,94362.22
2022-11-16T14:15:14.640Z,94361.34
2022-11-16T14:17:53.712Z,94357.63
2022-11-16T14:19:57.706Z,94370.69
2022-11-16T14:22:05.567Z,94369.72
2022-11-16T14:24:22.411Z,94355.81
2022-11-16T14:26:26.672Z,94360.69
2022-11-16T14:28:43.861Z,94356.63
2022-11-16T14:30:56.552Z,94354.13
2022-11-16T14:32:57.498Z,94348.63
2022-11-16T14:34:58.154Z,94353.53
2022-11-16T14:36:57.232Z,94356.09
2022-11-16T14:38:56.046Z,94358.66
2022-11-16T14:40:59.876Z,94354.81
2022-11-16T14:43:20.223Z,94357.91
2022-11-16T14:45:25.073Z,94361.16
2022-11-16T14:47:28.746Z,94359.97
2022-11-16T14:49:37.273Z,94360.72
2022-11-16T14:51:39.315Z,94356.94
2022-11-16T14:53:41.027Z,94354.78
2022-11-16T14:55:45.358Z,94359.50
2022-11-16T14:57:43.388Z,94353.19
2022-11-16T14:59:41.700Z,94351.59
2022-11-16T15:01:40.999Z,94346.00
2022-11-16T15:03:44.346Z,94338.69
2022-11-16T15:05:42.774Z,94352.72
2022-11-16T15:07:45.061Z,94351.06
2022-11-16T15:09:48.460Z,94339.97
2022-11-16T15:12:07.327Z,94349.91
2022-11-16T15:14:05.782Z,94343.06
2022-11-16T15:16:12.491Z,94345.53
2022-11-16T15:18:14.993Z,94335.31
2022-11-16T15:20:20.799Z,94339.69
2022-11-16T15:22:22.544Z,94337.50
2022-11-16T15:24:30.633Z,94340.56
2022-11-16T15:26:30.029Z,94348.59
2022-11-16T15:28:55.298Z,94339.97
2022-11-16T15:30:54.644Z,94339.47
2022-11-16T15:32:54.385Z,94331.28
2022-11-16T15:34:55.397Z,94340.75
2022-11-16T15:36:58.023Z,94335.09
2022-11-16T15:38:58.709Z,94335.63
2022-11-16T15:41:06.487Z,94333.22
2022-11-16T15:43:13.368Z,94336.03
2022-11-16T15:45:22.427Z,94340.22
2022-11-16T15:47:21.637Z,94336.41
2022-11-16T15:49:28.824Z,94331.00
2022-11-16T15:51:32.330Z,94333.81
2022-11-16T15:53:40.622Z,94340.25
2022-11-16T15:55:43.385Z,94335.09
2022-11-16T15:57:46.629Z,94346.97
2022-11-16T15:59:50.580Z,94331.88
2022-11-16T16:01:52.255Z,94338.16
2022-11-16T16:03:58.770Z,94341.81
2022-11-16T16:05:57.319Z,94349.63
2022-11-16T16:07:58.181Z,94337.00
2022-11-16T16:10:13.826Z,94337.84
2022-11-16T16:12:20.007Z,94341.75
2022-11-16T16:14:27.503Z,94336.13
2022-11-16T16:16:39.606Z,94339.03
2022-11-16T16:18:54.903Z,94341.81
2022-11-16T16:20:55.372Z,94341.81
2022-11-16T16:23:16.465Z,94342.63
2022-11-16T16:25:33.318Z,94344.97
2022-11-16T16:27:32.410Z,94342.22
2022-11-16T16:29:49.821Z,94343.09
2022-11-16T16:32:07.057Z,94350.03
2022-11-16T16:34:12.705Z,94345.75
2022-11-16T16:36:13.788Z,94337.44
2022-11-16T16:39:08.497Z,94351.53
2022-11-16T16:44:00.733Z,94351.31
2022-11-16T16:46:02.302Z,94348.44
2022-11-16T16:48:00.714Z,94338.81
2022-11-16T16:49:58.905Z,94337.59
2022-11-16T16:52:00.423Z,94341.34
2022-11-16T16:54:14.617Z,94336.09
2022-11-16T16:56:19.755Z,94333.72
2022-11-16T16:58:18.581Z,94327.25
2022-11-16T17:00:18.733Z,94339.78
2022-11-16T17:02:17.457Z,94329.53
2022-11-16T17:04:15.994Z,94325.81
2022-11-16T17:08:53.464Z,94335.81
2022-11-16T17:11:05.846Z,94334.84
2022-11-16T17:13:21.165Z,94318.72
2022-11-16T17:15:27.405Z,94325.09
2022-11-16T17:18:06.714Z,94327.84
2022-11-16T17:20:50.319Z,94320.13
2022-11-16T17:22:57.592Z,94324.00
2022-11-16T17:24:58.873Z,94322.91
2022-11-16T17:26:59.540Z,94320.69
2022-11-16T17:29:01.843Z,94328.66
2022-11-16T17:31:11.677Z,94321.75
2022-11-16T17:33:10.195Z,94317.22
2022-11-16T17:35:15.391Z,94318.34
2022-11-16T17:37:22.687Z,94311.72
2022-11-16T17:39:26.223Z,94311.19
2022-11-16T17:41:25.681Z,94318.22
2022-11-16T17:43:36.851Z,94309.66
2022-11-16T17:45:36.645Z,94304.16
2022-11-16T17:47:34.890Z,94314.09
2022-11-16T17:49:36.321Z,94317.03
2022-11-16T17:51:43.684Z,94312.72
2022-11-16T17:53:44.315Z,94306.38
2022-11-16T17:55:46.276Z,94296.97
2022-11-16T17:57:44.617Z,94306.59
2022-11-16T17:59:43.008Z,94309.00
2022-11-16T18:01:45.747Z,94308.59
2022-11-16T18:03:46.244Z,94301.44
2022-11-16T18:05:45.323Z,94306.28
2022-11-16T18:07:43.777Z,94302.97
2022-11-16T18:09:41.975Z,94305.03
2022-11-16T18:11:40.314Z,94297.31
2022-11-16T18:13:38.770Z,94300.91
2022-11-16T18:15:42.469Z,94286.31
2022-11-16T18:17:42.321Z,94283.53
2022-11-16T18:19:43.046Z,94280.47
2022-11-16T18:21:42.654Z,94277.19
2022-11-16T18:23:41.070Z,94273.41
2022-11-16T18:25:41.618Z,94273.28
2022-11-16T18:27:42.299Z,94278.81
2022-11-16T18:29:41.237Z,94270.34
2022-11-16T18:31:40.205Z,94270.75
2022-11-16T18:33:40.540Z,94272.72
2022-11-16T18:35:39.135Z,94277.56
2022-11-16T18:37:40.569Z,94272.69
2022-11-16T18:39:38.799Z,94265.22
2022-11-16T18:44:34.418Z,94288.16
2022-11-16T18:46:44.752Z,94286.63
2022-11-16T18:48:47.403Z,94289.09
2022-11-16T18:50:45.779Z,94293.38
2022-11-16T18:52:45.410Z,94283.16
2022-11-16T18:54:43.549Z,94290.38
2022-11-16T18:56:44.846Z,94300.31
2022-11-16T18:58:52.425Z,94281.09
2022-11-16T19:01:05.125Z,94268.25
2022-11-16T19:03:08.466Z,94279.03
2022-11-16T19:05:11.020Z,94286.50
2022-11-16T19:07:09.371Z,94276.31
2022-11-16T19:09:09.699Z,94277.94
2022-11-16T19:11:09.720Z,94275.19
2022-11-16T19:13:08.121Z,94274.09
2022-11-16T19:15:08.563Z,94279.06
2022-11-16T19:17:06.799Z,94278.94
2022-11-16T19:19:05.654Z,94271.47
2022-11-16T19:21:06.623Z,94264.53
2022-11-16T19:23:05.033Z,94277.94
2022-11-16T19:25:05.991Z,94279.28
2022-11-16T19:27:05.294Z,94273.31
2022-11-16T19:29:05.800Z,94269.31
2022-11-16T19:31:09.173Z,94273.31
2022-11-16T19:33:09.326Z,94271.13
2022-11-16T19:35:10.985Z,94278.34
2022-11-16T19:37:11.074Z,94279.44
2022-11-16T19:39:10.478Z,94284.28
2022-11-16T19:41:11.400Z,94284.72
2022-11-16T19:43:09.695Z,94276.84
2022-11-16T19:45:09.062Z,94271.59
2022-11-16T19:47:07.564Z,94285.16
2022-11-16T19:49:19.610Z,94288.88
2022-11-16T19:51:20.158Z,94283.03
2022-11-16T19:53:23.877Z,94277.09
2022-11-16T19:55:28.638Z,94284.81
2022-11-16T19:57:40.236Z,94283.19
2022-11-16T19:59:38.620Z,94269.69
2022-11-16T20:01:37.066Z,94260.03
2022-11-16T20:03:38.533Z,94271.78
2022-11-16T20:05:37.076Z,94270.53
2022-11-16T20:07:38.804Z,94255.06
2022-11-16T20:09:41.774Z,94259.47
2022-11-16T20:11:41.731Z,94255.75
2022-11-16T20:13:40.221Z,94257.81
2022-11-16T20:15:38.449Z,94259.91
2022-11-16T20:17:39.695Z,94253.94
2022-11-16T20:19:42.103Z,94244.59
2022-11-16T20:21:45.005Z,94250.53
2022-11-16T20:23:45.254Z,94259.94
2022-11-16T20:25:45.027Z,94261.47
2022-11-16T20:27:43.171Z,94238.53
2022-11-16T20:29:41.406Z,94243.50
2022-11-16T20:31:45.498Z,94242.78
2022-11-16T20:33:50.867Z,94223.06
2022-11-16T20:35:49.596Z,94213.09
2022-11-16T20:37:49.877Z,94210.50
2022-11-16T20:39:54.490Z,94228.19
2022-11-16T20:41:56.558Z,94222.53
2022-11-16T20:44:00.227Z,94209.97
2022-11-16T20:46:23.279Z,94209.03
2022-11-16T20:48:29.625Z,94225.97
2022-11-16T20:50:53.132Z,94217.75
2022-11-16T20:53:01.997Z,94220.91
2022-11-16T20:55:02.201Z,94218.38
2022-11-16T20:57:02.435Z,94225.56
2022-11-16T20:59:06.551Z,94221.59
2022-11-16T21:01:13.028Z,94214.41
2022-11-16T21:03:12.948Z,94198.50
2022-11-16T21:05:11.076Z,94205.53
2022-11-16T21:07:09.592Z,94207.06
2022-11-16T21:09:12.860Z,94215.66
2022-11-16T21:11:13.137Z,94201.84
2022-11-16T21:13:32.880Z,94195.06
2022-11-16T21:15:32.111Z,94199.50
2022-11-16T21:17:39.210Z,94201.56
2022-11-16T21:19:37.467Z,94187.53
2022-11-16T21:21:36.135Z,94188.81
2022-11-16T21:23:36.481Z,94193.13
2022-11-16T21:25:35.155Z,94200.25
2022-11-16T21:27:35.223Z,94199.03
2022-11-16T21:29:34.742Z,94199.84
2022-11-16T21:31:36.884Z,94194.59
2022-11-16T21:33:35.633Z,94194.22
2022-11-16T21:35:34.330Z,94190.25
2022-11-16T21:37:32.727Z,94181.41
2022-11-16T21:39:34.206Z,94177.13
2022-11-16T21:41:32.745Z,94197.13
2022-11-16T21:43:31.904Z,94193.25
2022-11-16T21:45:31.642Z,94187.47
2022-11-16T21:47:30.365Z,94178.06
2022-11-16T21:49:28.610Z,94175.03
2022-11-16T21:51:27.964Z,94192.38
2022-11-16T21:53:26.219Z,94184.81
2022-11-16T21:55:24.709Z,94172.53
2022-11-16T21:57:23.327Z,94175.88
2022-11-16T21:59:21.711Z,94176.69
2022-11-16T22:01:22.622Z,94161.78
2022-11-16T22:03:21.088Z,94162.19
2022-11-16T22:05:42.639Z,94160.53
2022-11-16T22:07:42.844Z,94163.25
2022-11-16T22:09:41.354Z,94157.28
2022-11-16T22:11:39.700Z,94161.59
2022-11-16T22:13:38.649Z,94156.66
2022-11-16T22:15:36.974Z,94171.69
2022-11-16T22:17:37.955Z,94169.25
2022-11-16T22:19:36.300Z,94160.13
2022-11-16T22:21:36.373Z,94148.66
2022-11-16T22:23:35.874Z,94162.56
2022-11-16T22:25:34.564Z,94167.81
2022-11-16T22:27:58.393Z,94169.31
2022-11-16T22:29:54.465Z,94159.75
2022-11-16T22:31:52.595Z,94151.97
2022-11-16T22:33:54.734Z,94156.94
2022-11-16T22:35:57.030Z,94143.16
2022-11-16T22:37:56.058Z,94138.88
2022-11-16T22:39:54.374Z,94126.75
2022-11-16T22:41:52.622Z,94136.41
2022-11-16T22:43:51.725Z,94125.06
2022-11-16T22:45:50.127Z,94118.91
2022-11-16T22:47:52.091Z,94119.75
2022-11-16T22:49:54.949Z,94120.19
2022-11-16T22:51:58.627Z,94123.78
2022-11-16T22:53:58.679Z,94133.91
2022-11-16T22:55:56.903Z,94126.84
2022-11-16T22:57:55.016Z,94111.50
2022-11-16T22:59:53.461Z,94122.06
2022-11-16T23:01:51.720Z,94124.09
2022-11-16T23:03:51.238Z,94125.00
2022-11-16T23:05:50.875Z,94122.44
2022-11-16T23:07:49.082Z,94128.94
2022-11-16T23:09:47.111Z,94124.81
2022-11-16T23:12:14.646Z,94114.31
2022-11-16T23:14:34.798Z,94118.69
2022-11-16T23:16:33.493Z,94116.38
2022-11-16T23:18:31.611Z,94115.09
2022-11-16T23:20:55.760Z,94119.75
2022-11-16T23:23:15.052Z,94125.00
2022-11-16T23:25:31.493Z,94112.19
2022-11-16T23:27:36.348Z,94123.41
2022-11-16T23:29:34.782Z,94121.06
2022-11-16T23:31:33.100Z,94110.19
2022-11-16T23:33:45.053Z,94117.63
2022-11-16T23:35:43.368Z,94112.94
2022-11-16T23:37:52.201Z,94111.56
2022-11-16T23:39:51.995Z,94104.13
2022-11-16T23:42:09.567Z,94107.44
2022-11-16T23:44:07.808Z,94108.53
2022-11-16T23:46:06.362Z,94097.63
2022-11-16T23:48:05.365Z,94091.72
2022-11-16T23:50:03.644Z,94091.03
2022-11-16T23:52:02.177Z,94086.38
2022-11-16T23:54:00.384Z,94090.78
2022-11-16T23:56:06.100Z,94083.38
2022-11-16T23:58:04.668Z,94078.41
